createdAt,value
2018-05-06T00:02:23.249Z,20.30
2018-05-06T00:04:51.168Z,22.60
2018-05-06T00:07:19.037Z,24.30
2018-05-06T00:09:46.912Z,22.80
2018-05-06T00:12:14.784Z,20.90
2018-05-06T00:14:42.326Z,23.40
2018-05-06T00:17:10.195Z,18.43
2018-05-06T00:19:38.728Z,20.67
2018-05-06T00:22:06.539Z,26.63
2018-05-06T00:24:34.306Z,24.03
2018-05-06T00:27:02.184Z,21.70
2018-05-06T00:29:29.893Z,20.70
2018-05-06T00:31:57.872Z,23.60
2018-05-06T00:34:25.762Z,24.77
2018-05-06T00:36:53.615Z,25.27
2018-05-06T00:39:21.476Z,23.23
2018-05-06T00:41:49.161Z,26.97
2018-05-06T00:44:17.000Z,27.27
2018-05-06T00:46:44.869Z,28.63
2018-05-06T00:49:12.710Z,24.77
2018-05-06T00:51:40.571Z,23.57
2018-05-06T00:54:20.228Z,25.30
2018-05-06T00:56:48.083Z,34.10
2018-05-06T00:59:16.004Z,22.40
2018-05-06T01:01:43.808Z,24.30
2018-05-06T01:04:11.657Z,22.40
2018-05-06T01:06:39.518Z,24.63
2018-05-06T01:09:07.345Z,25.63
2018-05-06T01:11:35.171Z,23.10
2018-05-06T01:14:03.011Z,23.97
2018-05-06T01:16:30.922Z,26.50
2018-05-06T01:18:58.689Z,25.63
2018-05-06T01:21:26.575Z,21.90
2018-05-06T01:23:54.216Z,26.13
2018-05-06T01:26:22.016Z,24.60
2018-05-06T01:28:50.004Z,21.50
2018-05-06T01:31:17.962Z,22.90
2018-05-06T01:33:45.743Z,22.93
2018-05-06T01:36:14.870Z,23.90
2018-05-06T01:38:42.812Z,24.23
2018-05-06T01:41:10.701Z,21.17
2018-05-06T01:43:38.515Z,23.20
2018-05-06T01:46:06.318Z,26.57
2018-05-06T01:48:34.180Z,19.93
2018-05-06T01:51:01.922Z,23.13
2018-05-06T01:53:29.769Z,22.80
2018-05-06T01:55:57.695Z,20.20
2018-05-06T01:58:25.543Z,22.80
2018-05-06T02:00:53.521Z,23.30
2018-05-06T02:03:21.187Z,21.10
2018-05-06T02:05:49.043Z,23.60
2018-05-06T02:08:16.904Z,20.50
2018-05-06T02:10:44.705Z,18.83
2018-05-06T02:13:12.552Z,21.30
2018-05-06T02:15:40.328Z,22.77
2018-05-06T02:18:08.255Z,25.73
2018-05-06T02:20:36.110Z,19.97
2018-05-06T02:23:03.989Z,22.27
2018-05-06T02:25:31.864Z,24.17
2018-05-06T02:27:59.736Z,19.53
2018-05-06T02:30:27.589Z,19.93
2018-05-06T02:32:55.453Z,18.97
2018-05-06T02:35:23.347Z,21.20
2018-05-06T02:37:51.251Z,24.87
2018-05-06T02:40:19.210Z,20.60
2018-05-06T02:42:46.982Z,22.13
2018-05-06T02:45:14.868Z,20.93
2018-05-06T02:47:42.551Z,26.87
2018-05-06T02:50:10.367Z,20.97
2018-05-06T02:52:38.286Z,17.87
2018-05-06T02:55:06.129Z,16.70
2018-05-06T02:57:33.997Z,18.60
2018-05-06T03:00:01.858Z,19.80
2018-05-06T03:02:29.732Z,21.87
2018-05-06T03:04:57.583Z,18.20
2018-05-06T03:07:25.452Z,19.53
2018-05-06T03:09:53.304Z,17.83
2018-05-06T03:12:21.182Z,18.63
2018-05-06T03:14:49.018Z,16.67
2018-05-06T03:17:16.828Z,22.00
2018-05-06T03:19:44.732Z,17.10
2018-05-06T03:22:12.532Z,23.53
2018-05-06T03:24:40.431Z,16.70
2018-05-06T03:27:08.287Z,18.23
2018-05-06T03:29:36.120Z,16.30
2018-05-06T03:32:03.944Z,20.23
2018-05-06T03:34:31.768Z,17.67
2018-05-06T03:36:59.629Z,17.10
2018-05-06T03:39:27.538Z,16.67
2018-05-06T03:41:55.118Z,16.27
2018-05-06T03:44:22.961Z,18.90
2018-05-06T03:46:50.796Z,18.30
2018-05-06T03:49:18.607Z,18.60
2018-05-06T03:51:46.486Z,17.90
2018-05-06T03:54:14.079Z,19.57
2018-05-06T03:57:02.388Z,18.53
2018-05-06T04:02:40.331Z,16.17
2018-05-06T04:05:09.994Z,19.10
2018-05-06T04:07:39.375Z,15.60
2018-05-06T04:10:07.802Z,17.97
2018-05-06T04:12:37.281Z,21.30
2018-05-06T04:15:05.654Z,13.80
2018-05-06T04:17:34.915Z,16.47
2018-05-06T04:20:04.232Z,16.40
2018-05-06T04:22:32.267Z,17.10
2018-05-06T04:25:01.397Z,16.30
2018-05-06T04:27:30.508Z,16.70
2018-05-06T04:29:59.697Z,15.20
2018-05-06T04:32:29.645Z,16.83
2018-05-06T04:34:58.792Z,15.50
2018-05-06T04:37:26.862Z,12.90
2018-05-06T04:39:56.659Z,14.63
2018-05-06T04:42:25.585Z,17.27
2018-05-06T04:44:54.617Z,13.90
2018-05-06T04:47:22.872Z,13.50
2018-05-06T04:49:52.974Z,14.87
2018-05-06T04:52:22.170Z,11.50
2018-05-06T04:54:51.184Z,13.83
2018-05-06T04:57:20.106Z,14.13
2018-05-06T04:59:50.721Z,15.10
2018-05-06T05:02:19.902Z,10.80
2018-05-06T05:04:49.110Z,11.80
2018-05-06T05:07:18.230Z,10.20
2018-05-06T05:09:47.396Z,12.67
2018-05-06T05:12:16.539Z,9.53
2018-05-06T05:14:45.720Z,10.40
2018-05-06T05:17:14.944Z,10.67
2018-05-06T05:19:45.275Z,10.43
2018-05-06T05:22:14.266Z,10.03
2018-05-06T05:24:43.814Z,11.63
2018-05-06T05:27:12.071Z,9.50
2018-05-06T05:29:41.237Z,10.27
2018-05-06T05:32:10.228Z,11.87
2018-05-06T05:34:38.391Z,12.57
2018-05-06T05:37:06.907Z,7.90
2018-05-06T05:39:35.877Z,11.73
2018-05-06T05:42:05.887Z,10.27
2018-05-06T05:44:36.704Z,10.30
2018-05-06T05:47:05.141Z,8.50
2018-05-06T05:49:33.746Z,10.80
2018-05-06T05:52:02.907Z,8.90
2018-05-06T05:54:32.238Z,8.87
2018-05-06T05:57:02.852Z,11.30
2018-05-06T05:59:31.124Z,9.87
2018-05-06T06:02:01.161Z,14.23
2018-05-06T06:04:30.467Z,10.97
2018-05-06T06:06:59.645Z,15.03
2018-05-06T06:09:28.751Z,9.53
2018-05-06T06:11:57.763Z,12.53
2018-05-06T06:14:26.960Z,8.63
2018-05-06T06:16:55.942Z,14.77
2018-05-06T06:19:25.150Z,6.57
2018-05-06T06:21:55.053Z,11.90
2018-05-06T06:24:24.074Z,9.33
2018-05-06T06:26:53.190Z,7.60
2018-05-06T06:29:23.201Z,8.33
2018-05-06T06:31:51.573Z,10.83
2018-05-06T06:34:20.580Z,8.87
2018-05-06T06:36:49.790Z,12.10
2018-05-06T06:39:19.100Z,8.20
2018-05-06T06:41:48.389Z,10.77
2018-05-06T06:44:17.194Z,11.43
2018-05-06T06:46:46.359Z,10.00
2018-05-06T06:49:14.433Z,8.63
2018-05-06T06:51:43.861Z,7.33
2018-05-06T06:54:12.242Z,8.87
2018-05-06T06:56:40.865Z,10.83
2018-05-06T06:59:10.232Z,9.23
2018-05-06T07:01:39.226Z,9.60
2018-05-06T07:04:08.300Z,9.50
2018-05-06T07:06:38.274Z,6.30
2018-05-06T07:09:07.350Z,8.53
2018-05-06T07:11:36.753Z,7.77
2018-05-06T07:14:07.105Z,7.40
2018-05-06T07:16:36.289Z,6.83
2018-05-06T07:19:05.598Z,7.17
2018-05-06T07:21:35.000Z,8.27
2018-05-06T07:24:04.073Z,7.70
2018-05-06T07:26:31.956Z,7.10
2018-05-06T07:29:00.303Z,8.77
2018-05-06T07:31:29.343Z,3.97
2018-05-06T07:33:58.769Z,5.77
2018-05-06T07:36:28.368Z,6.83
2018-05-06T07:38:58.302Z,4.83
2018-05-06T07:41:26.757Z,6.83
2018-05-06T07:43:56.090Z,7.60
2018-05-06T07:46:24.540Z,7.37
2018-05-06T07:48:53.522Z,8.53
2018-05-06T07:51:23.544Z,6.00
2018-05-06T07:53:53.814Z,4.63
2018-05-06T07:56:22.904Z,9.40
2018-05-06T07:58:51.536Z,6.50
2018-05-06T08:01:21.469Z,8.50
2018-05-06T08:03:50.573Z,7.30
2018-05-06T08:06:18.897Z,4.87
2018-05-06T08:08:47.964Z,5.70
2018-05-06T08:11:16.367Z,4.57
2018-05-06T08:13:44.742Z,5.87
2018-05-06T08:16:14.167Z,4.37
2018-05-06T08:18:44.055Z,4.43
2018-05-06T08:21:13.152Z,6.27
2018-05-06T08:23:41.641Z,5.90
2018-05-06T08:26:11.601Z,4.77
2018-05-06T08:28:40.700Z,6.20
2018-05-06T08:31:09.678Z,5.17
2018-05-06T08:33:38.320Z,5.60
2018-05-06T08:36:06.825Z,4.07
2018-05-06T08:38:35.413Z,5.13
2018-05-06T08:41:04.497Z,6.30
2018-05-06T08:43:32.383Z,9.00
2018-05-06T08:46:02.573Z,3.83
2018-05-06T08:48:30.892Z,5.57
2018-05-06T08:50:59.969Z,4.10
2018-05-06T08:53:30.057Z,6.07
2018-05-06T08:55:57.816Z,5.53
2018-05-06T08:58:27.092Z,3.23
2018-05-06T09:00:56.192Z,6.30
2018-05-06T09:03:25.264Z,4.67
2018-05-06T09:05:54.762Z,4.40
2018-05-06T09:08:22.985Z,6.40
2018-05-06T09:10:51.531Z,4.73
2018-05-06T09:13:19.782Z,5.83
2018-05-06T09:15:50.053Z,6.53
2018-05-06T09:18:18.471Z,4.23
2018-05-06T09:20:47.523Z,10.03
2018-05-06T09:23:16.651Z,6.23
2018-05-06T09:25:45.770Z,4.00
2018-05-06T09:28:15.053Z,3.20
2018-05-06T09:30:43.340Z,2.93
2018-05-06T09:33:11.725Z,3.50
2018-05-06T09:35:41.029Z,5.90
2018-05-06T09:38:10.336Z,4.73
2018-05-06T09:40:39.747Z,6.00
2018-05-06T09:43:09.758Z,3.03
2018-05-06T09:45:37.708Z,5.87
2018-05-06T09:48:07.036Z,4.87
2018-05-06T09:50:36.168Z,4.97
2018-05-06T09:53:04.723Z,3.30
2018-05-06T09:55:33.924Z,6.23
2018-05-06T09:58:10.182Z,4.47
2018-05-06T10:00:40.175Z,3.50
2018-05-06T10:03:09.199Z,3.80
2018-05-06T10:05:38.298Z,4.87
2018-05-06T10:08:07.539Z,4.03
2018-05-06T10:10:36.652Z,5.83
2018-05-06T10:13:05.796Z,6.23
2018-05-06T10:15:36.869Z,9.13
2018-05-06T10:18:06.168Z,4.27
2018-05-06T10:20:34.744Z,4.67
2018-05-06T10:23:03.942Z,5.20
2018-05-06T10:25:33.139Z,3.83
2018-05-06T10:28:01.455Z,4.03
2018-05-06T10:30:31.268Z,4.93
2018-05-06T10:32:59.523Z,4.27
2018-05-06T10:35:27.678Z,5.30
2018-05-06T10:37:55.961Z,4.30
2018-05-06T10:43:03.898Z,8.33
2018-05-06T10:45:33.086Z,8.33
2018-05-06T10:48:02.281Z,4.27
2018-05-06T10:50:31.957Z,4.10
2018-05-06T10:53:00.989Z,3.40
2018-05-06T10:55:30.136Z,6.80
2018-05-06T10:57:59.523Z,6.93
2018-05-06T11:00:28.311Z,7.13
2018-05-06T11:02:56.906Z,5.90
2018-05-06T11:05:28.117Z,4.90
2018-05-06T11:07:57.170Z,4.80
2018-05-06T11:10:27.642Z,5.77
2018-05-06T11:12:56.996Z,5.23
2018-05-06T11:15:25.360Z,3.30
2018-05-06T11:17:54.053Z,4.60
2018-05-06T11:20:24.774Z,5.30
2018-05-06T11:22:53.632Z,6.83
2018-05-06T11:25:22.772Z,4.10
2018-05-06T11:27:51.675Z,5.47
2018-05-06T11:30:20.391Z,5.13
2018-05-06T11:32:50.021Z,8.47
2018-05-06T11:35:19.360Z,4.40
2018-05-06T11:37:48.698Z,3.60
2018-05-06T11:40:18.629Z,4.63
2018-05-06T11:42:48.791Z,5.50
2018-05-06T11:45:17.008Z,5.13
2018-05-06T11:47:46.530Z,8.27
2018-05-06T11:50:15.707Z,5.70
2018-05-06T11:52:45.642Z,4.00
2018-05-06T11:55:14.817Z,5.07
2018-05-06T11:57:45.519Z,3.47
2018-05-06T12:00:14.460Z,3.57
2018-05-06T12:02:43.553Z,3.53
2018-05-06T12:05:11.753Z,4.10
2018-05-06T12:07:40.732Z,11.50
2018-05-06T12:10:10.159Z,8.77
2018-05-06T12:12:39.011Z,6.20
2018-05-06T12:15:08.145Z,19.67
2018-05-06T12:17:38.084Z,28.90
2018-05-06T12:20:07.277Z,6.00
2018-05-06T12:22:35.348Z,6.17
2018-05-06T12:25:04.032Z,9.00
2018-05-06T12:27:32.205Z,8.03
2018-05-06T12:30:00.802Z,6.67
2018-05-06T12:32:30.310Z,5.20
2018-05-06T12:34:59.881Z,8.53
2018-05-06T12:37:29.018Z,5.80
2018-05-06T12:39:58.020Z,8.80
2018-05-06T12:42:26.284Z,8.30
2018-05-06T12:44:54.883Z,4.17
2018-05-06T12:47:24.175Z,4.30
2018-05-06T12:49:55.084Z,8.70
2018-05-06T12:52:24.177Z,5.63
2018-05-06T12:54:54.425Z,3.00
2018-05-06T12:57:23.634Z,3.90
2018-05-06T12:59:51.865Z,2.27
2018-05-06T13:02:20.845Z,3.30
2018-05-06T13:04:49.214Z,2.70
2018-05-06T13:07:18.480Z,5.35
2018-05-06T13:09:48.433Z,3.83
2018-05-06T13:12:18.392Z,3.70
2018-05-06T13:14:47.540Z,4.30
2018-05-06T13:17:16.752Z,6.03
2018-05-06T13:19:45.843Z,6.10
2018-05-06T13:22:15.860Z,3.70
2018-05-06T13:24:44.952Z,2.37
2018-05-06T13:27:13.472Z,8.00
2018-05-06T13:29:41.877Z,3.33
2018-05-06T13:32:11.661Z,6.17
2018-05-06T13:34:40.969Z,2.17
2018-05-06T13:37:09.562Z,2.90
2018-05-06T13:39:38.753Z,5.47
2018-05-06T13:42:08.057Z,2.70
2018-05-06T13:44:36.506Z,3.57
2018-05-06T13:47:05.612Z,2.10
2018-05-06T13:49:34.856Z,2.60
2018-05-06T13:52:02.979Z,5.43
2018-05-06T13:54:31.816Z,13.10
2018-05-06T13:57:01.823Z,3.00
2018-05-06T13:59:33.595Z,5.33
2018-05-06T14:02:02.602Z,4.10
2018-05-06T14:04:31.942Z,2.43
2018-05-06T14:07:01.107Z,3.20
2018-05-06T14:09:30.283Z,4.17
2018-05-06T14:11:59.180Z,4.90
2018-05-06T14:14:28.407Z,2.13
2018-05-06T14:16:58.201Z,2.60
2018-05-06T14:19:27.624Z,1.90
2018-05-06T14:21:56.916Z,3.30
2018-05-06T14:24:26.193Z,1.57
2018-05-06T14:26:54.700Z,4.03
2018-05-06T14:29:23.670Z,3.33
2018-05-06T14:31:52.101Z,2.37
2018-05-06T14:34:21.195Z,2.63
2018-05-06T14:36:49.592Z,2.63
2018-05-06T14:39:18.749Z,2.30
2018-05-06T14:41:47.704Z,2.00
2018-05-06T14:44:16.995Z,2.10
2018-05-06T14:46:57.715Z,1.80
2018-05-06T14:49:26.818Z,2.23
2018-05-06T14:51:55.206Z,4.75
2018-05-06T14:54:25.344Z,2.17
2018-05-06T14:56:57.310Z,4.00
2018-05-06T14:59:26.416Z,3.00
2018-05-06T15:01:56.721Z,5.00
2018-05-06T15:04:25.925Z,2.77
2018-05-06T15:06:55.788Z,4.68
2018-05-06T15:09:26.498Z,2.03
2018-05-06T15:11:59.117Z,3.70
2018-05-06T15:14:39.501Z,2.70
2018-05-06T15:17:09.761Z,4.20
2018-05-06T15:19:38.220Z,4.10
2018-05-06T15:22:08.262Z,2.35
2018-05-06T15:24:39.072Z,6.00
2018-05-06T15:27:10.749Z,3.50
2018-05-06T16:53:44.074Z,4.27
2018-05-06T16:56:18.728Z,9.97
2018-05-06T16:58:49.258Z,3.67
2018-05-06T17:01:17.422Z,4.40
2018-05-06T17:03:45.577Z,3.67
2018-05-06T17:06:13.668Z,6.22
2018-05-06T17:08:42.547Z,2.73
2018-05-06T17:11:11.319Z,4.80
2018-05-06T17:13:40.109Z,2.15
2018-05-06T17:16:08.885Z,4.40
2018-05-06T17:18:37.046Z,4.13
2018-05-06T17:21:07.663Z,2.50
2018-05-06T17:23:37.026Z,5.00
2018-05-06T17:26:06.064Z,4.10
2018-05-06T17:28:34.891Z,4.57
2018-05-06T17:31:04.462Z,12.13
2018-05-06T17:33:33.395Z,3.03
2018-05-06T17:36:02.256Z,3.23
2018-05-06T17:38:30.391Z,3.10
2018-05-06T17:40:58.499Z,4.50
2018-05-06T17:43:27.412Z,3.13
2018-05-06T17:45:55.447Z,2.10
2018-05-06T17:48:23.505Z,7.73
2018-05-06T17:50:51.621Z,3.47
2018-05-06T17:53:20.380Z,5.93
2018-05-06T17:55:49.194Z,3.63
2018-05-06T17:58:17.207Z,3.60
2018-05-06T18:00:45.975Z,4.30
2018-05-06T18:03:14.748Z,4.70
2018-05-06T18:05:42.809Z,3.73
2018-05-06T18:08:10.855Z,2.63
2018-05-06T18:10:39.567Z,3.70
2018-05-06T18:13:08.439Z,2.30
2018-05-06T18:15:37.144Z,2.70
2018-05-06T18:18:05.284Z,4.37
2018-05-06T18:20:33.373Z,4.60
2018-05-06T18:23:01.456Z,4.10
2018-05-06T18:25:29.508Z,2.87
2018-05-06T18:27:58.308Z,3.40
2018-05-06T18:30:26.403Z,3.20
2018-05-06T18:32:54.064Z,2.33
2018-05-06T18:35:22.839Z,2.70
2018-05-06T18:37:52.353Z,1.70
2018-05-06T18:40:21.210Z,5.17
2018-05-06T18:42:49.959Z,4.40
2018-05-06T18:45:18.711Z,4.23
2018-05-06T18:47:47.448Z,6.70
2018-05-06T18:50:15.723Z,10.73
2018-05-06T18:52:44.992Z,2.63
2018-05-06T18:55:13.972Z,4.30
2018-05-06T18:57:42.711Z,3.77
2018-05-06T19:00:11.467Z,6.10
2018-05-06T19:02:40.216Z,7.43
2018-05-06T19:05:07.933Z,4.43
2018-05-06T19:07:36.699Z,5.37
2018-05-06T19:10:04.969Z,6.47
2018-05-06T19:12:33.748Z,3.53
2018-05-06T19:16:03.495Z,4.63
2018-05-06T19:18:31.285Z,5.07
2018-05-06T19:20:58.916Z,3.97
2018-05-06T19:23:26.705Z,8.10
2018-05-06T19:25:54.577Z,4.83
2018-05-06T19:28:22.444Z,6.90
2018-05-06T19:30:50.326Z,5.60
2018-05-06T19:33:18.219Z,4.60
2018-05-06T19:35:46.067Z,6.43
2018-05-06T19:38:13.884Z,3.63
2018-05-06T19:40:41.792Z,3.10
2018-05-06T19:43:09.718Z,3.90
2018-05-06T19:45:37.596Z,5.47
2018-05-06T19:48:05.510Z,6.70
2018-05-06T19:50:33.359Z,9.20
2018-05-06T19:53:01.245Z,3.10
2018-05-06T19:55:29.054Z,2.27
2018-05-06T19:57:56.938Z,6.10
2018-05-06T20:00:24.787Z,3.77
2018-05-06T20:02:52.689Z,4.37
2018-05-06T20:05:20.489Z,4.90
2018-05-06T20:07:48.339Z,2.10
2018-05-06T20:10:16.252Z,4.63
2018-05-06T20:12:44.153Z,2.57
2018-05-06T20:15:12.005Z,2.67
2018-05-06T20:17:39.848Z,3.00
2018-05-06T20:20:07.748Z,3.27
2018-05-06T20:22:35.623Z,3.80
2018-05-06T20:25:03.525Z,7.73
2018-05-06T20:27:31.393Z,3.00
2018-05-06T20:29:59.162Z,5.27
2018-05-06T20:32:27.028Z,4.67
2018-05-06T20:34:54.812Z,2.00
2018-05-06T20:37:22.612Z,2.63
2018-05-06T20:39:50.494Z,2.20
2018-05-06T20:42:18.291Z,2.60
2018-05-06T20:44:46.192Z,2.77
2018-05-06T20:47:13.944Z,2.50
2018-05-06T20:49:41.796Z,3.13
2018-05-06T20:52:09.573Z,3.67
2018-05-06T20:54:37.397Z,4.47
2018-05-06T20:57:05.193Z,2.70
2018-05-06T20:59:32.983Z,5.20
2018-05-06T21:02:00.874Z,6.73
2018-05-06T21:04:28.770Z,2.90
2018-05-06T21:06:56.683Z,4.40
2018-05-06T21:09:24.454Z,2.93
2018-05-06T21:11:52.412Z,2.87
2018-05-06T21:14:20.268Z,2.80
2018-05-06T21:16:48.092Z,4.17
2018-05-06T21:19:15.970Z,3.17
2018-05-06T21:21:43.764Z,2.27
2018-05-06T21:24:11.708Z,7.20
2018-05-06T21:26:39.487Z,3.13
2018-05-06T21:29:07.006Z,3.50
2018-05-06T21:31:34.957Z,3.70
2018-05-06T21:34:02.823Z,3.60
2018-05-06T21:36:30.734Z,4.60
2018-05-06T21:38:58.611Z,3.70
2018-05-06T21:41:27.429Z,3.40
2018-05-06T21:43:55.265Z,3.07
2018-05-06T21:46:23.158Z,4.80
2018-05-06T21:48:51.014Z,4.57
2018-05-06T21:51:18.875Z,2.43
2018-05-06T21:53:46.711Z,2.80
2018-05-06T21:56:15.502Z,4.13
2018-05-06T21:58:43.350Z,4.70
2018-05-06T22:01:12.153Z,5.20
2018-05-06T22:03:39.997Z,2.73
2018-05-06T22:06:07.887Z,3.20
2018-05-06T22:08:35.788Z,5.33
2018-05-06T22:11:03.644Z,3.57
2018-05-06T22:13:31.409Z,4.83
2018-05-06T22:15:59.310Z,3.67
2018-05-06T22:18:27.080Z,4.33
2018-05-06T22:20:55.527Z,3.80
2018-05-06T22:23:23.420Z,2.77
2018-05-06T22:25:51.263Z,2.33
2018-05-06T22:28:19.016Z,3.17
2018-05-06T22:30:46.722Z,3.53
2018-05-06T22:33:14.573Z,4.10
2018-05-06T22:35:42.483Z,3.73
2018-05-06T22:38:10.321Z,2.50
2018-05-06T22:40:38.210Z,3.43
2018-05-06T22:43:05.979Z,2.57
2018-05-06T22:45:33.701Z,4.27
2018-05-06T22:48:01.462Z,4.90
2018-05-06T22:50:29.329Z,4.33
2018-05-06T22:52:57.192Z,4.10
2018-05-06T22:55:25.060Z,4.07
2018-05-06T22:57:52.620Z,8.40
2018-05-06T23:00:20.478Z,4.47
2018-05-06T23:02:48.355Z,7.90
2018-05-06T23:05:16.136Z,3.30
2018-05-06T23:07:44.008Z,3.23
2018-05-06T23:10:11.818Z,3.20
2018-05-06T23:12:40.307Z,2.53
2018-05-06T23:15:08.009Z,8.13
2018-05-06T23:17:35.856Z,2.63
2018-05-06T23:20:03.758Z,3.87
2018-05-06T23:35:42.099Z,4.83
2018-05-06T23:38:11.363Z,3.67
2018-05-06T23:40:40.592Z,5.70
2018-05-06T23:43:09.487Z,5.73
2018-05-06T23:45:38.349Z,12.27
2018-05-06T23:48:06.087Z,2.67
2018-05-06T23:50:34.828Z,4.50
2018-05-06T23:53:05.139Z,3.33
2018-05-06T23:55:35.081Z,5.43
2018-05-06T23:58:03.767Z,13.33
